Time;durP1;ratioP1;P1;durP2;ratioP2;P2;SDS_P1;SDS_P2;PMS_P1;PMS_P2;Temp;Humidity;BMP_temperature;BMP_pressure;BME280_temperature;BME280_humidity;BME280_pressure;Samples;Min_cycle;Max_cycle;Signal;HPM_P1;HPM_P2
2023/03/20 00:01:49;;;;;;;12.05;9.60;;;8.90;99.90;;;;;;4975976;28;20065;-83
2023/03/20 00:04:15;;;;;;;9.18;8.25;;;9.10;99.90;;;;;;4994033;28;20058;-83
2023/03/20 00:06:40;;;;;;;12.48;7.95;;;9.10;99.90;;;;;;4992258;28;20598;-83
2023/03/20 00:09:07;;;;;;;9.02;7.43;;;9.10;99.90;;;;;;4993825;28;20093;-82
2023/03/20 00:11:47;;;;;;;13.88;8.57;;;9.10;99.90;;;;;;4998335;28;20025;-83
2023/03/20 00:14:14;;;;;;;11.80;7.70;;;9.10;99.90;;;;;;4994637;28;20034;-83
2023/03/20 00:16:42;;;;;;;10.57;8.30;;;9.10;99.90;;;;;;4977567;28;20500;-83
2023/03/20 00:19:16;;;;;;;10.43;7.50;;;9.10;99.90;;;;;;4975583;28;20050;-82
2023/03/20 00:21:44;;;;;;;11.18;9.00;;;9.10;99.90;;;;;;4976035;28;20030;-83
2023/03/20 00:24:11;;;;;;;12.05;8.50;;;9.10;99.90;;;;;;4976355;28;20034;-82
2023/03/20 00:26:38;;;;;;;14.00;9.82;;;9.10;99.90;;;;;;4994975;28;20189;-83
2023/03/20 00:29:06;;;;;;;12.15;9.32;;;9.00;99.90;;;;;;4979551;28;20427;-83
2023/03/20 00:31:38;;;;;;;18.05;10.13;;;8.90;99.90;;;;;;5011855;28;20026;-82
2023/03/20 00:34:11;;;;;;;12.43;9.75;;;8.80;99.90;;;;;;5011843;28;20387;-82
2023/03/20 00:36:37;;;;;;;16.38;9.70;;;8.40;99.90;;;;;;5011197;28;20061;-82
2023/03/20 00:39:03;;;;;;;14.90;9.95;;;8.30;99.90;;;;;;5010826;28;20066;-83
2023/03/20 00:41:38;;;;;;;13.13;10.07;;;8.10;99.90;;;;;;4995246;28;20025;-82
2023/03/20 00:44:04;;;;;;;13.63;10.57;;;7.90;99.90;;;;;;5008746;28;20117;-82
2023/03/20 00:46:37;;;;;;;10.50;9.13;;;7.80;99.90;;;;;;4992347;28;20034;-83
2023/03/20 00:49:05;;;;;;;11.25;9.80;;;7.50;99.90;;;;;;4994700;28;20484;-82
2023/03/20 00:51:31;;;;;;;12.70;10.95;;;7.60;99.90;;;;;;4978553;28;20034;-82
2023/03/20 00:53:57;;;;;;;16.45;11.10;;;7.50;99.90;;;;;;5011342;28;20413;-82
2023/03/20 00:56:29;;;;;;;14.93;10.95;;;7.50;99.90;;;;;;4991708;28;20473;-82
2023/03/20 00:58:55;;;;;;;12.45;11.00;;;7.40;99.90;;;;;;4994224;28;20112;-82
2023/03/20 01:01:21;;;;;;;19.27;11.15;;;7.20;99.90;;;;;;4994649;28;20088;-83
2023/03/20 01:03:47;;;;;;;14.23;11.68;;;6.90;99.90;;;;;;4978718;28;20038;-82
2023/03/20 01:06:15;;;;;;;15.95;10.38;;;6.90;99.90;;;;;;5009187;28;20021;-82
2023/03/20 01:08:41;;;;;;;16.60;11.70;;;6.90;99.90;;;;;;4995865;28;20062;-83
2023/03/20 01:11:11;;;;;;;14.35;12.10;;;6.70;99.90;;;;;;4959696;28;20085;-84
2023/03/20 01:13:39;;;;;;;12.55;11.23;;;6.80;99.90;;;;;;5012028;28;20026;-84
2023/03/20 01:16:06;;;;;;;16.98;13.07;;;6.80;99.90;;;;;;4992766;28;20029;-81
2023/03/20 01:18:33;;;;;;;15.50;12.30;;;6.70;99.90;;;;;;4987111;28;20042;-83
2023/03/20 01:20:59;;;;;;;16.13;12.27;;;6.70;99.90;;;;;;4991202;28;20544;-83
2023/03/20 01:23:25;;;;;;;14.70;10.85;;;6.70;99.90;;;;;;4991413;28;20114;-84
2023/03/20 01:25:51;;;;;;;16.60;11.88;;;6.70;99.90;;;;;;4992847;28;20037;-84
2023/03/20 01:28:21;;;;;;;17.45;12.02;;;6.70;99.90;;;;;;5010405;28;20452;-83
2023/03/20 01:30:48;;;;;;;21.92;12.52;;;6.60;99.90;;;;;;5013019;28;20113;-83
2023/03/20 01:33:17;;;;;;;22.60;12.90;;;6.60;99.90;;;;;;5015849;28;20029;-83
2023/03/20 01:35:45;;;;;;;14.57;12.02;;;6.70;99.90;;;;;;4983951;28;20482;-83
2023/03/20 01:38:17;;;;;;;16.38;12.55;;;6.70;99.90;;;;;;4992863;28;20121;-83
2023/03/20 01:40:56;;;;;;;19.52;14.13;;;6.60;99.90;;;;;;5011171;28;20048;-84
2023/03/20 01:43:25;;;;;;;17.13;11.23;;;6.30;99.90;;;;;;5010537;28;20036;-83
2023/03/20 01:46:30;;;;;;;14.70;12.75;;;6.30;99.90;;;;;;4995610;28;20080;-83
2023/03/20 01:49:27;;;;;;;15.48;12.77;;;6.30;99.90;;;;;;4975884;28;20496;-84
2023/03/20 01:51:56;;;;;;;14.13;12.63;;;6.20;99.90;;;;;;4975180;28;20033;-83
2023/03/20 01:54:36;;;;;;;16.35;12.43;;;6.30;99.90;;;;;;4961847;28;20108;-83
2023/03/20 01:57:14;;;;;;;17.02;9.52;;;6.30;99.90;;;;;;4990738;28;20034;-83
2023/03/20 01:59:46;;;;;;;15.10;11.30;;;6.30;99.90;;;;;;4979817;28;20042;-83
2023/03/20 02:02:20;;;;;;;14.65;11.85;;;6.20;99.90;;;;;;4991059;28;20030;-83
2023/03/20 02:04:51;;;;;;;19.65;10.77;;;6.20;99.90;;;;;;4980401;28;20489;-83
2023/03/20 02:07:20;;;;;;;20.17;11.00;;;6.10;99.90;;;;;;5009581;28;20127;-84
2023/03/20 02:10:14;;;;;;;18.40;12.57;;;6.20;99.90;;;;;;4996636;28;20030;-83
2023/03/20 02:13:01;;;;;;;10.98;9.00;;;6.10;99.90;;;;;;4996596;28;20029;-83
2023/03/20 02:15:35;;;;;;;10.50;9.02;;;6.10;99.90;;;;;;4993366;28;20513;-83
2023/03/20 02:18:09;;;;;;;15.93;9.90;;;6.00;99.90;;;;;;5010045;28;20125;-83
2023/03/20 02:21:18;;;;;;;12.50;10.10;;;6.00;99.90;;;;;;4994120;28;20116;-83
2023/03/20 02:24:07;;;;;;;12.60;11.30;;;5.90;99.90;;;;;;4962287;28;20136;-83
2023/03/20 02:26:50;;;;;;;18.58;10.88;;;5.90;99.90;;;;;;4994815;28;20871;-83
2023/03/20 02:29:54;;;;;;;17.67;10.55;;;5.70;99.90;;;;;;5010321;28;20034;-83
2023/03/20 02:32:38;;;;;;;16.27;10.60;;;5.70;99.90;;;;;;4993984;28;20033;-83
2023/03/20 02:35:26;;;;;;;11.57;9.30;;;5.60;99.90;;;;;;5008911;28;20029;-83
2023/03/20 02:37:59;;;;;;;14.07;10.02;;;5.60;99.90;;;;;;5009791;28;20045;-82
2023/03/20 02:40:32;;;;;;;12.63;9.85;;;5.50;99.90;;;;;;5009539;28;20038;-82
2023/03/20 02:43:20;;;;;;;13.95;11.05;;;5.50;99.90;;;;;;5009431;28;20378;-83
2023/03/20 02:45:55;;;;;;;;;;;5.60;99.90;;;;;;5012243;28;20030;-81
2023/03/20 02:48:40;;;;;;;14.32;10.10;;;5.60;99.90;;;;;;4995332;28;19937;-82
2023/03/20 02:51:24;;;;;;;15.10;10.43;;;5.60;99.90;;;;;;4977870;28;20425;-82
2023/03/20 02:54:12;;;;;;;11.15;9.38;;;5.60;99.90;;;;;;4977941;28;20370;-83
2023/03/20 02:56:53;;;;;;;11.55;9.88;;;5.60;99.90;;;;;;4977985;28;20134;-82
2023/03/20 02:59:55;;;;;;;16.08;9.93;;;5.70;99.90;;;;;;5000100;28;20469;-83
2023/03/20 03:02:35;;;;;;;14.23;12.43;;;5.70;99.90;;;;;;4977239;28;20049;-83
2023/03/20 03:05:08;;;;;;;10.50;8.63;;;5.80;99.90;;;;;;4992604;28;20069;-84
2023/03/20 03:07:35;;;;;;;16.35;11.48;;;5.80;99.90;;;;;;5004374;28;20076;-83
2023/03/20 03:10:07;;;;;;;10.82;8.65;;;5.90;99.90;;;;;;4996463;28;20663;-83
2023/03/20 03:12:36;;;;;;;13.77;10.13;;;5.90;99.90;;;;;;5013118;28;20117;-83
2023/03/20 03:15:26;;;;;;;10.90;9.13;;;5.90;99.90;;;;;;5003654;28;20436;-83
2023/03/20 03:17:53;;;;;;;10.48;7.95;;;5.90;99.90;;;;;;5006630;28;20132;-84
2023/03/20 03:20:31;;;;;;;16.55;9.18;;;5.90;99.90;;;;;;4996352;28;20520;-83
2023/03/20 03:22:58;;;;;;;11.27;9.48;;;5.80;99.90;;;;;;4997013;28;20400;-83
2023/03/20 03:25:31;;;;;;;12.27;10.25;;;5.90;99.90;;;;;;4979887;28;20366;-82
2023/03/20 03:28:25;;;;;;;10.35;8.98;;;5.90;99.90;;;;;;4992911;28;20023;-83
2023/03/20 03:30:53;;;;;;;16.92;9.15;;;6.00;99.90;;;;;;4993478;28;20228;-83
2023/03/20 03:33:24;;;;;;;15.07;8.90;;;6.00;99.90;;;;;;4976916;28;20051;-83
2023/03/20 03:36:00;;;;;;;8.27;7.47;;;6.10;99.90;;;;;;4990902;28;20029;-84
2023/03/20 03:38:32;;;;;;;9.70;8.70;;;6.10;99.90;;;;;;4998217;28;20042;-82
2023/03/20 03:41:28;;;;;;;9.82;8.82;;;6.10;99.90;;;;;;5012470;28;20104;-83
2023/03/20 03:44:17;;;;;;;10.93;8.68;;;6.20;99.90;;;;;;4996438;28;20037;-83
2023/03/20 03:46:55;;;;;;;14.32;9.15;;;6.20;99.90;;;;;;4993538;28;20049;-83
2023/03/20 03:49:29;;;;;;;10.52;7.10;;;6.20;99.90;;;;;;4986428;28;20034;-82
2023/03/20 03:51:59;;;;;;;8.10;6.75;;;6.30;99.90;;;;;;4992607;28;20084;-82
2023/03/20 03:54:57;;;;;;;9.68;8.52;;;6.30;99.90;;;;;;4995349;28;20029;-83
2023/03/20 03:57:39;;;;;;;10.30;7.38;;;6.40;99.90;;;;;;5009209;28;20038;-82
2023/03/20 04:00:12;;;;;;;6.85;6.13;;;6.40;99.90;;;;;;4976704;28;20046;-82
2023/03/20 04:02:48;;;;;;;9.75;7.13;;;6.50;99.90;;;;;;4992641;28;20031;-83
2023/03/20 04:05:17;;;;;;;8.85;6.97;;;6.60;99.90;;;;;;5002232;28;20038;-83
2023/03/20 04:07:51;;;;;;;10.40;7.68;;;6.50;99.90;;;;;;4995280;28;20044;-83
2023/03/20 04:10:17;;;;;;;11.45;7.90;;;6.60;99.90;;;;;;5027658;28;20125;-83
2023/03/20 04:12:44;;;;;;;12.38;6.50;;;6.60;99.90;;;;;;5011706;28;20089;-83
2023/03/20 04:15:12;;;;;;;7.30;6.57;;;6.60;99.90;;;;;;4993552;28;20022;-83
2023/03/20 04:17:39;;;;;;;7.05;6.07;;;6.60;99.90;;;;;;4995091;28;20366;-83
2023/03/20 04:20:09;;;;;;;9.70;8.50;;;6.60;99.90;;;;;;5011721;28;20042;-82
2023/03/20 04:22:35;;;;;;;10.27;8.03;;;6.50;99.90;;;;;;4995524;28;20140;-83
2023/03/20 04:25:09;;;;;;;7.05;6.22;;;6.50;99.90;;;;;;4993824;28;20053;-83
2023/03/20 04:27:35;;;;;;;7.05;5.53;;;6.50;99.90;;;;;;4992026;28;20117;-82
2023/03/20 04:30:08;;;;;;;8.38;7.68;;;6.40;99.90;;;;;;4976958;28;20545;-82
2023/03/20 04:32:53;;;;;;;10.65;6.72;;;6.40;99.90;;;;;;4992011;28;20125;-82
2023/03/20 04:35:26;;;;;;;9.02;8.10;;;6.40;99.90;;;;;;4971914;28;20029;-83
2023/03/20 04:37:57;;;;;;;10.07;7.22;;;6.30;99.90;;;;;;4993114;28;20491;-82
2023/03/20 04:40:23;;;;;;;9.98;5.43;;;6.30;99.90;;;;;;4975568;28;20072;-82
2023/03/20 04:42:50;;;;;;;8.38;7.57;;;6.20;99.90;;;;;;4975841;28;20122;-82
2023/03/20 04:45:16;;;;;;;9.02;7.18;;;6.20;99.90;;;;;;4984637;28;20026;-82
2023/03/20 04:47:42;;;;;;;9.10;6.82;;;6.70;99.90;;;;;;4994624;28;20473;-82
2023/03/20 04:50:09;;;;;;;12.55;7.10;;;6.20;99.90;;;;;;4975471;28;20125;-83
2023/03/20 04:52:35;;;;;;;11.30;8.15;;;6.20;99.90;;;;;;4975496;28;20030;-82
2023/03/20 04:55:01;;;;;;;19.30;8.52;;;6.20;99.90;;;;;;4974653;28;20397;-82
2023/03/20 04:57:28;;;;;;;9.43;8.02;;;6.20;99.90;;;;;;4991589;28;20060;-81
2023/03/20 04:59:53;;;;;;;12.70;10.20;;;6.10;99.90;;;;;;4975139;28;20098;-82
2023/03/20 05:02:20;;;;;;;19.00;10.65;;;6.20;99.90;;;;;;4975448;28;20050;-82
2023/03/20 05:04:46;;;;;;;10.90;9.18;;;6.20;99.90;;;;;;4981077;28;20025;-82
2023/03/20 05:07:12;;;;;;;11.98;8.98;;;6.20;99.90;;;;;;4994260;28;20049;-82
2023/03/20 05:09:52;;;;;;;14.30;9.00;;;6.10;99.90;;;;;;4996545;28;20061;-83
2023/03/20 05:12:18;;;;;;;14.68;9.52;;;6.10;99.90;;;;;;4994758;28;20030;-82
2023/03/20 05:15:03;;;;;;;9.07;8.25;;;6.10;99.90;;;;;;5005913;28;20029;-82
2023/03/20 05:17:35;;;;;;;18.00;9.40;;;6.20;99.90;;;;;;4993154;28;20038;-82
2023/03/20 05:20:19;;;;;;;10.43;9.20;;;6.20;99.90;;;;;;4991471;28;20073;-82
2023/03/20 05:22:55;;;;;;;11.75;9.40;;;6.20;99.90;;;;;;4991136;28;20027;-81
2023/03/20 05:25:47;;;;;;;12.15;10.30;;;6.20;99.90;;;;;;4984759;28;20065;-82
2023/03/20 05:28:33;;;;;;;13.73;8.82;;;6.20;99.90;;;;;;4990866;28;20026;-82
2023/03/20 05:31:09;;;;;;;15.23;11.45;;;6.10;99.90;;;;;;4976522;28;20038;-82
2023/03/20 05:33:51;;;;;;;17.63;9.73;;;6.10;99.90;;;;;;4991456;28;20046;-82
2023/03/20 05:36:34;;;;;;;10.93;8.38;;;6.20;99.90;;;;;;5002543;28;20048;-82
2023/03/20 05:39:25;;;;;;;11.15;9.50;;;6.20;99.90;;;;;;4997653;28;20042;-82
2023/03/20 05:42:09;;;;;;;14.38;9.13;;;6.30;99.90;;;;;;5010863;28;20555;-82
2023/03/20 05:44:47;;;;;;;15.95;8.52;;;6.30;99.90;;;;;;4994021;28;20029;-82
2023/03/20 05:47:42;;;;;;;14.80;9.00;;;6.30;99.90;;;;;;4948830;28;20043;-81
2023/03/20 05:50:31;;;;;;;27.15;10.02;;;6.30;99.90;;;;;;5006336;28;20046;-85
2023/03/20 05:53:32;;;;;;;12.40;8.50;;;6.30;99.90;;;;;;4972869;28;20114;-83
2023/03/20 05:56:01;;;;;;;10.73;8.50;;;6.30;99.90;;;;;;4980995;28;20046;-81
2023/03/20 05:58:47;;;;;;;14.77;9.48;;;6.30;99.90;;;;;;4999665;28;20382;-82
2023/03/20 06:01:20;;;;;;;11.98;7.30;;;6.30;99.90;;;;;;5013414;28;20045;-83
2023/03/20 06:04:05;;;;;;;10.25;9.15;;;6.10;99.90;;;;;;5004021;28;20080;-85
2023/03/20 06:06:51;;;;;;;14.38;8.90;;;6.50;99.90;;;;;;4989874;28;20412;-85
2023/03/20 06:09:17;;;;;;;9.25;8.27;;;6.50;99.90;;;;;;5010003;28;20026;-83
2023/03/20 06:11:44;;;;;;;10.60;7.63;;;6.40;99.90;;;;;;4961771;28;20018;-84
2023/03/20 06:14:10;;;;;;;15.20;8.63;;;6.40;99.90;;;;;;4986614;28;20022;-81
2023/03/20 06:16:39;;;;;;;12.07;7.57;;;6.50;99.90;;;;;;4993266;28;20030;-83
2023/03/20 06:19:05;;;;;;;12.40;8.30;;;6.50;99.90;;;;;;4993720;28;20106;-83
2023/03/20 06:21:31;;;;;;;12.25;8.25;;;6.50;99.90;;;;;;4997100;28;20129;-83
2023/03/20 06:23:58;;;;;;;9.60;7.70;;;6.60;99.90;;;;;;4991112;28;20166;-83
2023/03/20 06:26:25;;;;;;;13.25;8.02;;;6.60;99.90;;;;;;4987613;28;20043;-85
2023/03/20 06:29:00;;;;;;;14.52;9.00;;;6.70;99.90;;;;;;4975112;28;20545;-80
2023/03/20 06:31:27;;;;;;;7.15;6.38;;;6.80;99.90;;;;;;4976120;28;20152;-81
2023/03/20 06:33:53;;;;;;;13.60;9.00;;;6.60;99.90;;;;;;4965023;28;20485;-80
2023/03/20 06:36:18;;;;;;;7.93;6.78;;;6.40;99.90;;;;;;4941987;28;20372;-81
2023/03/20 06:38:45;;;;;;;11.10;6.70;;;6.50;99.90;;;;;;4962424;28;20061;-81
2023/03/20 06:41:14;;;;;;;11.70;9.00;;;6.80;99.90;;;;;;4973427;28;20042;-80
2023/03/20 06:43:41;;;;;;;6.80;6.10;;;6.90;99.90;;;;;;4975967;28;20038;-80
2023/03/20 06:46:08;;;;;;;13.73;8.48;;;6.90;99.90;;;;;;4967676;28;20030;-82
2023/03/20 06:48:35;;;;;;;12.95;7.70;;;6.90;99.90;;;;;;4991592;28;20030;-82
2023/03/20 06:51:05;;;;;;;11.82;8.73;;;7.00;99.90;;;;;;4975926;28;20025;-82
2023/03/20 06:53:38;;;;;;;13.90;8.35;;;7.10;99.90;;;;;;4973275;28;20038;-82
2023/03/20 06:56:08;;;;;;;10.27;6.75;;;7.20;99.90;;;;;;4991899;28;20042;-81
2023/03/20 06:58:34;;;;;;;13.48;9.85;;;6.90;99.90;;;;;;5011465;28;20100;-84
2023/03/20 07:00:59;;;;;;;13.80;8.10;;;7.20;99.90;;;;;;4994675;28;20026;-85
2023/03/20 07:03:25;;;;;;;9.65;6.38;;;7.20;99.90;;;;;;5012378;28;20030;-81
2023/03/20 07:05:53;;;;;;;14.32;9.65;;;7.20;99.90;;;;;;4994541;28;20033;-82
2023/03/20 07:08:24;;;;;;;11.95;10.80;;;7.30;99.90;;;;;;4996957;28;20358;-82
2023/03/20 07:10:50;;;;;;;9.55;7.68;;;7.30;99.90;;;;;;4995882;28;20032;-83
2023/03/20 07:13:17;;;;;;;17.10;8.00;;;7.40;99.90;;;;;;4996231;28;20026;-82
2023/03/20 07:15:43;;;;;;;8.40;6.35;;;7.50;99.90;;;;;;4985860;28;20077;-83
2023/03/20 07:18:13;;;;;;;11.38;6.88;;;7.60;99.90;;;;;;4963895;28;20049;-83
2023/03/20 07:20:39;;;;;;;15.77;8.40;;;7.70;99.90;;;;;;4989379;28;20112;-81
2023/03/20 07:23:05;;;;;;;8.48;7.60;;;8.00;99.90;;;;;;5011980;28;20033;-82
2023/03/20 07:25:33;;;;;;;14.77;7.57;;;7.90;99.90;;;;;;5009255;28;20029;-81
2023/03/20 07:27:59;;;;;;;10.48;7.18;;;8.30;99.90;;;;;;5012202;28;20030;-81
2023/03/20 07:30:27;;;;;;;11.23;7.07;;;8.20;99.90;;;;;;5011401;28;20030;-82
2023/03/20 07:32:53;;;;;;;10.57;7.20;;;8.30;99.90;;;;;;4995658;28;20048;-81
2023/03/20 07:35:20;;;;;;;9.82;6.95;;;8.40;99.90;;;;;;4994812;28;20026;-81
2023/03/20 07:37:46;;;;;;;10.40;6.68;;;8.60;99.90;;;;;;4995696;28;20037;-82
2023/03/20 07:40:12;;;;;;;8.98;5.88;;;8.80;99.90;;;;;;4995774;28;20044;-80
2023/03/20 07:42:58;;;;;;;10.80;7.93;;;8.90;99.90;;;;;;4976363;28;20036;-81
2023/03/20 07:45:45;;;;;;;14.35;7.68;;;9.00;99.90;;;;;;4991590;28;20038;-81
2023/03/20 07:48:11;;;;;;;9.80;5.70;;;9.10;99.90;;;;;;4991931;28;20068;-82
2023/03/20 07:50:37;;;;;;;6.60;5.15;;;9.10;99.90;;;;;;4984642;28;20022;-81
2023/03/20 07:53:04;;;;;;;12.05;7.72;;;9.10;99.90;;;;;;5002354;28;20038;-81
2023/03/20 07:55:29;;;;;;;8.68;5.80;;;9.10;99.90;;;;;;5012459;28;20113;-81
2023/03/20 07:57:55;;;;;;;8.32;5.72;;;9.00;99.90;;;;;;5001008;28;20544;-82
2023/03/20 08:00:21;;;;;;;12.00;6.15;;;9.00;99.90;;;;;;4998879;28;20037;-84
2023/03/20 08:02:48;;;;;;;9.57;5.70;;;9.10;99.90;;;;;;4995507;28;20041;-83
2023/03/20 08:05:14;;;;;;;6.20;4.60;;;9.10;99.90;;;;;;4988697;28;20041;-83
2023/03/20 08:07:40;;;;;;;16.00;5.78;;;9.20;99.90;;;;;;5002977;28;20023;-83
2023/03/20 08:10:06;;;;;;;12.77;5.85;;;9.20;99.90;;;;;;4976129;28;20037;-82
2023/03/20 08:12:32;;;;;;;6.07;5.45;;;9.10;99.90;;;;;;4982700;28;20129;-82
2023/03/20 08:14:58;;;;;;;9.50;5.38;;;9.10;99.90;;;;;;4998633;28;20533;-82
2023/03/20 08:17:24;;;;;;;6.72;5.32;;;9.10;99.90;;;;;;4986687;28;20030;-83
2023/03/20 08:19:50;;;;;;;8.52;5.38;;;9.00;99.90;;;;;;4976530;28;20133;-83
2023/03/20 08:22:16;;;;;;;10.18;5.57;;;9.20;99.90;;;;;;4976271;28;20145;-82
2023/03/20 08:24:42;;;;;;;6.72;4.63;;;8.90;99.90;;;;;;4980136;28;20030;-82
2023/03/20 08:27:08;;;;;;;7.38;5.68;;;8.90;99.90;;;;;;5011481;28;20469;-82
2023/03/20 08:29:34;;;;;;;8.48;5.20;;;9.10;99.90;;;;;;4979081;28;20045;-82
2023/03/20 08:32:00;;;;;;;15.05;4.55;;;9.00;99.90;;;;;;4976221;28;20449;-82
2023/03/20 08:34:26;;;;;;;9.18;4.90;;;9.10;99.90;;;;;;4978027;28;20026;-83
2023/03/20 08:36:52;;;;;;;7.88;4.93;;;9.10;99.90;;;;;;4994899;28;20380;-82
2023/03/20 08:39:18;;;;;;;18.33;5.43;;;9.10;99.90;;;;;;4978389;28;20046;-82
2023/03/20 08:41:44;;;;;;;7.40;4.32;;;9.10;99.90;;;;;;4991194;28;20022;-82
2023/03/20 08:44:11;;;;;;;8.60;4.95;;;9.20;99.90;;;;;;4992035;28;20474;-82
2023/03/20 08:46:38;;;;;;;6.03;4.50;;;9.30;99.90;;;;;;4995004;28;20443;-82
2023/03/20 08:49:05;;;;;;;9.02;5.57;;;9.30;99.90;;;;;;4994689;28;20107;-82
2023/03/20 08:51:31;;;;;;;9.90;4.57;;;9.40;99.90;;;;;;4994911;28;20038;-82
2023/03/20 08:53:57;;;;;;;6.90;5.60;;;9.40;99.90;;;;;;5011686;28;20088;-82
2023/03/20 08:56:22;;;;;;;6.88;4.40;;;9.40;99.90;;;;;;5010032;28;20030;-81
2023/03/20 08:58:48;;;;;;;7.90;4.95;;;9.40;99.90;;;;;;5011451;28;20062;-81
2023/03/20 09:01:14;;;;;;;7.22;4.32;;;9.30;99.90;;;;;;4991272;28;20022;-83
2023/03/20 09:03:40;;;;;;;8.63;4.05;;;9.00;99.90;;;;;;4962332;28;20032;-82
2023/03/20 09:06:08;;;;;;;9.63;4.32;;;9.20;99.90;;;;;;4993319;28;20062;-80
2023/03/20 09:08:34;;;;;;;8.07;4.97;;;9.10;99.90;;;;;;4992341;28;20583;-87
2023/03/20 09:11:00;;;;;;;3.38;3.08;;;9.30;99.90;;;;;;4974712;28;20027;-83
2023/03/20 09:13:26;;;;;;;4.47;4.05;;;9.30;99.90;;;;;;4992189;28;20474;-82
2023/03/20 09:15:54;;;;;;;11.82;5.07;;;9.40;99.90;;;;;;4979136;28;20038;-82
2023/03/20 09:18:22;;;;;;;6.95;4.30;;;9.30;99.90;;;;;;4999178;28;20038;-82
2023/03/20 09:21:20;;;;;;;4.32;2.95;;;9.30;99.90;;;;;;4990715;28;20056;-82
2023/03/20 09:23:46;;;;;;;11.95;4.70;;;9.40;99.90;;;;;;4980731;28;20533;-83
2023/03/20 09:26:12;;;;;;;5.32;3.65;;;9.50;99.90;;;;;;4991688;28;20084;-82
2023/03/20 09:28:38;;;;;;;4.78;3.38;;;9.20;99.90;;;;;;4993868;28;20416;-82
2023/03/20 09:31:04;;;;;;;5.30;4.05;;;9.40;99.90;;;;;;5011264;28;20033;-83
2023/03/20 09:33:30;;;;;;;4.40;3.60;;;9.40;99.90;;;;;;5008791;28;20022;-84
2023/03/20 09:35:56;;;;;;;8.30;3.95;;;9.40;99.90;;;;;;4985717;28;20045;-82
2023/03/20 09:38:21;;;;;;;8.75;2.90;;;9.20;99.90;;;;;;4992507;28;20096;-81
2023/03/20 09:40:51;;;;;;;5.75;3.60;;;8.80;99.90;;;;;;4977840;28;20465;-83
2023/03/20 09:43:21;;;;;;;5.47;3.28;;;8.90;99.90;;;;;;5009921;28;20029;-81
2023/03/20 09:46:22;;;;;;;8.13;3.30;;;9.00;99.90;;;;;;4978681;28;20038;-81
2023/03/20 09:48:49;;;;;;;7.63;3.25;;;;;;;;;;4989287;28;20109;-82
2023/03/20 09:51:24;;;;;;;6.22;3.50;;;8.90;99.90;;;;;;4991615;28;20022;-82
2023/03/20 09:53:58;;;;;;;8.90;5.68;;;8.90;99.90;;;;;;4988171;28;20035;-82
2023/03/20 09:56:29;;;;;;;6.63;5.05;;;8.80;99.90;;;;;;4983856;28;20033;-83
2023/03/20 09:59:05;;;;;;;8.30;4.65;;;8.80;99.90;;;;;;4981929;28;20128;-83
2023/03/20 10:01:46;;;;;;;8.27;3.55;;;8.50;99.90;;;;;;5008285;28;20030;-85
2023/03/20 10:04:12;;;;;;;9.10;2.72;;;8.90;99.90;;;;;;5018957;28;20034;-84
2023/03/20 10:06:38;;;;;;;9.02;3.83;;;8.90;99.90;;;;;;4983076;28;20030;-84
2023/03/20 10:09:19;;;;;;;5.55;4.07;;;9.10;99.90;;;;;;4978859;28;20084;-82
2023/03/20 10:12:25;;;;;;;8.90;4.20;;;9.10;99.90;;;;;;5001498;28;20045;-83
2023/03/20 10:14:53;;;;;;;10.55;3.58;;;9.20;99.90;;;;;;5012483;28;20042;-82
2023/03/20 10:17:50;;;;;;;9.75;3.47;;;9.20;99.90;;;;;;4998036;28;20038;-82
2023/03/20 10:21:00;;;;;;;9.18;4.93;;;9.10;99.90;;;;;;4994527;28;20034;-85
2023/03/20 10:23:32;;;;;;;;;;;9.10;99.90;;;;;;4958136;28;20041;-83
2023/03/20 10:26:14;;;;;;;10.40;3.92;;;9.00;99.90;;;;;;5012406;28;19917;-82
2023/03/20 10:28:50;;;;;;;3.88;3.58;;;9.00;99.90;;;;;;5012803;28;20037;-81
2023/03/20 10:31:49;;;;;;;8.82;4.00;;;9.00;99.90;;;;;;4997528;28;20408;-82
2023/03/20 10:34:17;;;;;;;7.75;4.75;;;8.80;99.90;;;;;;5006525;28;20092;-81
2023/03/20 10:37:07;;;;;;;12.10;4.28;;;8.80;99.90;;;;;;5015023;28;20065;-82
2023/03/20 10:40:12;;;;;;;9.45;5.13;;;8.60;99.90;;;;;;4995727;28;20050;-81
2023/03/20 10:42:41;;;;;;;7.05;3.05;;;8.60;99.90;;;;;;4997914;28;20025;-81
2023/03/20 10:45:17;;;;;;;6.55;5.55;;;8.60;99.90;;;;;;4996396;28;20033;-81
2023/03/20 10:47:47;;;;;;;3.55;3.25;;;8.70;99.90;;;;;;4997105;28;20030;-81
2023/03/20 10:50:28;;;;;;;13.75;5.05;;;9.00;99.90;;;;;;5013464;28;20053;-81
2023/03/20 10:52:56;;;;;;;6.32;4.32;;;9.10;99.90;;;;;;4984043;28;20362;-81
2023/03/20 10:55:34;;;;;;;6.72;4.80;;;9.10;99.90;;;;;;4969707;28;20026;-82
2023/03/20 10:58:17;;;;;;;4.65;2.97;;;9.20;99.90;;;;;;4997124;28;20448;-83
2023/03/20 11:00:43;;;;;;;5.82;3.58;;;8.90;99.90;;;;;;5013493;28;20041;-81
2023/03/20 11:03:21;;;;;;;13.68;4.97;;;8.80;99.90;;;;;;5013444;28;20085;-81
2023/03/20 11:05:57;;;;;;;8.65;5.15;;;8.70;99.90;;;;;;4993251;28;20026;-83
2023/03/20 11:08:38;;;;;;;10.35;6.82;;;9.10;99.90;;;;;;5006374;28;20125;-83
2023/03/20 11:11:04;;;;;;;3.20;2.95;;;9.10;99.90;;;;;;5013203;28;20032;-87
2023/03/20 11:13:42;;;;;;;6.65;3.63;;;8.90;99.90;;;;;;5004285;28;20125;-81
2023/03/20 11:16:10;;;;;;;5.50;4.82;;;9.00;99.90;;;;;;5008390;28;20052;-83
2023/03/20 11:18:37;;;;;;;8.68;4.40;;;9.10;99.90;;;;;;5007989;28;20433;-82
2023/03/20 11:21:07;;;;;;;11.73;5.00;;;9.10;99.90;;;;;;4976883;28;20474;-83
2023/03/20 11:23:34;;;;;;;9.93;6.32;;;9.00;99.90;;;;;;4978750;28;20062;-81
2023/03/20 11:26:03;;;;;;;10.43;4.88;;;9.50;99.90;;;;;;5007670;28;20109;-82
2023/03/20 11:28:31;;;;;;;6.18;4.30;;;9.40;99.90;;;;;;5010247;28;20114;-82
2023/03/20 11:31:19;;;;;;;8.48;4.07;;;9.40;99.90;;;;;;5012497;28;20030;-82
2023/03/20 11:34:03;;;;;;;13.98;5.28;;;9.30;99.90;;;;;;4992616;28;20040;-83
2023/03/20 11:36:36;;;;;;;11.85;3.83;;;9.30;99.90;;;;;;4992004;28;20031;-82
2023/03/20 11:39:05;;;;;;;11.15;4.55;;;9.40;99.90;;;;;;5011927;28;20041;-82
2023/03/20 11:41:31;;;;;;;6.68;4.80;;;9.50;99.90;;;;;;4996775;28;20038;-82
2023/03/20 11:43:57;;;;;;;8.55;3.72;;;9.70;99.90;;;;;;5012773;28;20038;-82
2023/03/20 11:46:25;;;;;;;16.08;5.65;;;9.80;99.90;;;;;;4983957;28;20041;-83
2023/03/20 11:49:16;;;;;;;5.35;3.78;;;9.70;99.90;;;;;;5008530;28;20794;-81
2023/03/20 11:51:42;;;;;;;7.78;4.15;;;9.90;99.90;;;;;;4990206;28;20025;-82
2023/03/20 11:54:17;;;;;;;16.27;4.82;;;9.90;99.90;;;;;;4979439;28;20058;-83
2023/03/20 11:56:58;;;;;;;6.45;4.20;;;10.20;99.90;;;;;;5007410;28;20056;-81
2023/03/20 11:59:34;;;;;;;;;;;10.50;99.90;;;;;;5012626;28;20396;-81
2023/03/20 12:02:14;;;;;;;10.05;3.70;;;10.80;99.90;;;;;;5011909;28;20280;-82
2023/03/20 12:04:41;;;;;;;6.13;4.00;;;11.20;99.90;;;;;;5007287;28;20022;-82
2023/03/20 12:07:21;;;;;;;10.63;4.13;;;11.50;99.90;;;;;;4984895;28;20437;-82
2023/03/20 12:09:58;;;;;;;;;;;11.50;99.90;;;;;;5013030;28;20034;-82
2023/03/20 12:12:37;;;;;;;6.70;3.90;;;11.70;99.90;;;;;;5011608;28;19980;-81
2023/03/20 12:15:12;;;;;;;6.78;3.67;;;12.00;99.90;;;;;;4992596;28;20026;-82
2023/03/20 12:18:01;;;;;;;9.23;4.53;;;12.10;99.90;;;;;;4990177;28;20034;-82
2023/03/20 12:20:42;;;;;;;13.82;3.65;;;12.40;99.90;;;;;;5001421;28;20042;-81
2023/03/20 12:23:08;;;;;;;10.45;4.88;;;12.30;99.90;;;;;;4995526;28;20041;-82
2023/03/20 12:26:03;;;;;;;6.38;4.75;;;12.20;99.90;;;;;;4993737;28;20026;-82
2023/03/20 12:28:40;;;;;;;7.22;4.10;;;12.20;99.90;;;;;;4976318;28;20081;-82
2023/03/20 12:31:25;;;;;;;4.88;3.40;;;12.20;99.90;;;;;;4976950;28;20069;-82
2023/03/20 12:34:04;;;;;;;4.85;2.60;;;12.40;99.90;;;;;;4994792;28;20452;-83
2023/03/20 12:36:30;;;;;;;2.65;2.28;;;12.40;99.90;;;;;;4996125;28;20022;-82
2023/03/20 12:38:56;;;;;;;9.73;3.47;;;12.60;99.90;;;;;;5011491;28;20042;-83
2023/03/20 12:41:33;;;;;;;7.13;4.97;;;13.20;99.90;;;;;;4979159;28;20068;-82
2023/03/20 12:44:18;;;;;;;7.28;2.80;;;12.70;99.90;;;;;;5011092;28;20068;-83
2023/03/20 12:46:58;;;;;;;6.32;4.03;;;13.00;99.90;;;;;;4987903;28;20481;-83
2023/03/20 12:49:42;;;;;;;4.90;2.75;;;12.90;99.90;;;;;;4995060;28;20396;-83
2023/03/20 12:52:22;;;;;;;7.50;4.30;;;12.70;99.90;;;;;;5027640;28;20030;-82
2023/03/20 12:54:59;;;;;;;10.15;3.65;;;12.50;99.90;;;;;;4979686;28;20030;-83
2023/03/20 12:57:41;;;;;;;4.80;3.25;;;12.20;99.90;;;;;;5011226;28;20112;-82
2023/03/20 13:00:52;;;;;;;6.70;3.58;;;12.40;99.90;;;;;;5010968;28;20073;-82
2023/03/20 13:03:32;;;;;;;8.98;4.40;;;12.20;99.90;;;;;;4980836;28;20052;-82
2023/03/20 13:06:04;;;;;;;5.75;3.33;;;12.30;99.90;;;;;;5004399;28;20489;-82
2023/03/20 13:08:46;;;;;;;14.32;4.30;;;12.40;99.90;;;;;;5006615;28;20068;-81
2023/03/20 13:11:30;;;;;;;7.35;3.05;;;12.20;99.90;;;;;;4991975;28;20034;-81
2023/03/20 13:14:33;;;;;;;11.75;3.85;;;12.30;99.90;;;;;;4994419;28;20030;-80
2023/03/20 13:17:36;;;;;;;7.07;3.17;;;12.40;99.90;;;;;;5003292;28;20029;-83
2023/03/20 13:20:20;;;;;;;7.30;4.38;;;12.40;99.90;;;;;;4962126;28;20073;-83
2023/03/20 13:23:07;;;;;;;7.60;3.22;;;12.60;99.90;;;;;;4987892;28;20029;-82
2023/03/20 13:26:16;;;;;;;6.55;3.83;;;12.50;99.90;;;;;;4985494;28;20041;-83